sensor_id;sensor_type;location;lat;lon;timestamp;P1;durP1;ratioP1;P2;durP2;ratioP2
16965;SDS011;8599;47.852;12.070;2022-11-15T00:00:56;24.27;;;8.40;;
16965;SDS011;8599;47.852;12.070;2022-11-15T00:03:24;17.57;;;7.23;;
16965;SDS011;8599;47.852;12.070;2022-11-15T00:05:52;15.37;;;7.90;;
16965;SDS011;8599;47.852;12.070;2022-11-15T00:08:19;16.53;;;8.67;;
16965;SDS011;8599;47.852;12.070;2022-11-15T00:10:53;16.83;;;7.27;;
16965;SDS011;8599;47.852;12.070;2022-11-15T00:13:20;19.70;;;7.67;;
16965;SDS011;8599;47.852;12.070;2022-11-15T00:15:47;11.50;;;6.67;;
16965;SDS011;8599;47.852;12.070;2022-11-15T00:18:15;16.00;;;6.70;;
16965;SDS011;8599;47.852;12.070;2022-11-15T00:20:43;18.23;;;7.50;;
16965;SDS011;8599;47.852;12.070;2022-11-15T00:23:10;13.50;;;7.73;;
16965;SDS011;8599;47.852;12.070;2022-11-15T00:25:36;15.87;;;7.10;;
16965;SDS011;8599;47.852;12.070;2022-11-15T00:28:03;11.40;;;6.57;;
16965;SDS011;8599;47.852;12.070;2022-11-15T00:30:30;13.97;;;6.50;;
16965;SDS011;8599;47.852;12.070;2022-11-15T00:33:00;14.63;;;7.47;;
16965;SDS011;8599;47.852;12.070;2022-11-15T00:35:30;10.20;;;5.97;;
16965;SDS011;8599;47.852;12.070;2022-11-15T00:37:57;14.10;;;6.13;;
16965;SDS011;8599;47.852;12.070;2022-11-15T00:40:24;10.63;;;6.57;;
16965;SDS011;8599;47.852;12.070;2022-11-15T00:42:51;7.13;;;5.70;;
16965;SDS011;8599;47.852;12.070;2022-11-15T00:45:18;15.80;;;7.77;;
16965;SDS011;8599;47.852;12.070;2022-11-15T00:47:45;14.87;;;6.07;;
16965;SDS011;8599;47.852;12.070;2022-11-15T00:50:12;10.07;;;5.63;;
16965;SDS011;8599;47.852;12.070;2022-11-15T00:52:40;13.70;;;6.53;;
16965;SDS011;8599;47.852;12.070;2022-11-15T00:55:08;16.20;;;6.80;;
16965;SDS011;8599;47.852;12.070;2022-11-15T00:57:39;14.40;;;6.30;;
16965;SDS011;8599;47.852;12.070;2022-11-15T01:00:06;7.97;;;5.17;;
16965;SDS011;8599;47.852;12.070;2022-11-15T01:02:34;8.53;;;5.27;;
16965;SDS011;8599;47.852;12.070;2022-11-15T01:05:01;14.40;;;5.63;;
16965;SDS011;8599;47.852;12.070;2022-11-15T01:07:28;11.13;;;6.00;;
16965;SDS011;8599;47.852;12.070;2022-11-15T01:09:56;12.37;;;5.53;;
16965;SDS011;8599;47.852;12.070;2022-11-15T01:12:23;11.30;;;5.60;;
16965;SDS011;8599;47.852;12.070;2022-11-15T01:14:49;9.83;;;5.67;;
16965;SDS011;8599;47.852;12.070;2022-11-15T01:17:16;12.50;;;5.57;;
16965;SDS011;8599;47.852;12.070;2022-11-15T01:19:43;11.83;;;6.10;;
16965;SDS011;8599;47.852;12.070;2022-11-15T01:22:10;9.63;;;4.80;;
16965;SDS011;8599;47.852;12.070;2022-11-15T01:24:37;11.20;;;4.87;;
16965;SDS011;8599;47.852;12.070;2022-11-15T01:27:05;9.20;;;5.13;;
16965;SDS011;8599;47.852;12.070;2022-11-15T01:29:32;8.10;;;4.97;;
16965;SDS011;8599;47.852;12.070;2022-11-15T01:31:59;7.50;;;4.67;;
16965;SDS011;8599;47.852;12.070;2022-11-15T01:34:25;5.63;;;4.13;;
16965;SDS011;8599;47.852;12.070;2022-11-15T01:36:52;8.97;;;4.03;;
16965;SDS011;8599;47.852;12.070;2022-11-15T01:39:19;8.43;;;5.03;;
16965;SDS011;8599;47.852;12.070;2022-11-15T01:41:46;4.90;;;3.60;;
16965;SDS011;8599;47.852;12.070;2022-11-15T01:47:05;3.57;;;3.20;;
16965;SDS011;8599;47.852;12.070;2022-11-15T01:49:37;12.50;;;4.77;;
16965;SDS011;8599;47.852;12.070;2022-11-15T01:52:07;8.30;;;4.23;;
16965;SDS011;8599;47.852;12.070;2022-11-15T01:54:39;5.60;;;3.60;;
16965;SDS011;8599;47.852;12.070;2022-11-15T01:57:07;10.17;;;4.70;;
16965;SDS011;8599;47.852;12.070;2022-11-15T01:59:37;8.20;;;4.13;;
16965;SDS011;8599;47.852;12.070;2022-11-15T02:02:07;8.93;;;4.50;;
16965;SDS011;8599;47.852;12.070;2022-11-15T02:04:35;5.53;;;3.70;;
16965;SDS011;8599;47.852;12.070;2022-11-15T02:07:05;5.20;;;3.50;;
16965;SDS011;8599;47.852;12.070;2022-11-15T02:09:35;4.90;;;3.37;;
16965;SDS011;8599;47.852;12.070;2022-11-15T02:12:03;5.60;;;3.53;;
16965;SDS011;8599;47.852;12.070;2022-11-15T02:14:31;3.47;;;3.00;;
16965;SDS011;8599;47.852;12.070;2022-11-15T02:17:02;5.80;;;3.73;;
16965;SDS011;8599;47.852;12.070;2022-11-15T02:22:49;10.33;;;4.07;;
16965;SDS011;8599;47.852;12.070;2022-11-15T02:25:36;6.87;;;4.07;;
16965;SDS011;8599;47.852;12.070;2022-11-15T02:31:01;7.27;;;4.00;;
16965;SDS011;8599;47.852;12.070;2022-11-15T02:33:34;6.37;;;3.70;;
16965;SDS011;8599;47.852;12.070;2022-11-15T02:36:05;5.50;;;3.87;;
16965;SDS011;8599;47.852;12.070;2022-11-15T02:38:40;5.03;;;3.37;;
16965;SDS011;8599;47.852;12.070;2022-11-15T02:41:14;6.90;;;4.00;;
16965;SDS011;8599;47.852;12.070;2022-11-15T02:43:46;7.20;;;4.33;;
16965;SDS011;8599;47.852;12.070;2022-11-15T02:46:27;8.60;;;4.43;;
16965;SDS011;8599;47.852;12.070;2022-11-15T02:49:16;7.23;;;4.27;;
16965;SDS011;8599;47.852;12.070;2022-11-15T02:51:44;10.10;;;4.50;;
16965;SDS011;8599;47.852;12.070;2022-11-15T02:54:14;9.27;;;3.70;;
16965;SDS011;8599;47.852;12.070;2022-11-15T02:56:45;4.47;;;3.10;;
16965;SDS011;8599;47.852;12.070;2022-11-15T02:59:19;10.17;;;4.53;;
16965;SDS011;8599;47.852;12.070;2022-11-15T03:02:07;5.43;;;3.60;;
16965;SDS011;8599;47.852;12.070;2022-11-15T03:04:44;4.30;;;3.23;;
16965;SDS011;8599;47.852;12.070;2022-11-15T03:07:18;11.40;;;4.37;;
16965;SDS011;8599;47.852;12.070;2022-11-15T03:09:51;9.97;;;4.07;;
16965;SDS011;8599;47.852;12.070;2022-11-15T03:12:23;7.70;;;4.10;;
16965;SDS011;8599;47.852;12.070;2022-11-15T03:14:54;6.87;;;4.13;;
16965;SDS011;8599;47.852;12.070;2022-11-15T03:17:27;7.43;;;3.60;;
16965;SDS011;8599;47.852;12.070;2022-11-15T03:19:57;4.63;;;3.23;;
16965;SDS011;8599;47.852;12.070;2022-11-15T03:22:27;7.70;;;4.10;;
16965;SDS011;8599;47.852;12.070;2022-11-15T03:25:00;11.33;;;4.97;;
16965;SDS011;8599;47.852;12.070;2022-11-15T03:27:31;7.90;;;4.03;;
16965;SDS011;8599;47.852;12.070;2022-11-15T03:30:03;6.13;;;3.90;;
16965;SDS011;8599;47.852;12.070;2022-11-15T03:32:34;7.70;;;4.17;;
16965;SDS011;8599;47.852;12.070;2022-11-15T03:35:04;8.23;;;5.07;;
16965;SDS011;8599;47.852;12.070;2022-11-15T03:37:35;5.50;;;3.80;;
16965;SDS011;8599;47.852;12.070;2022-11-15T03:40:07;6.03;;;3.47;;
16965;SDS011;8599;47.852;12.070;2022-11-15T03:42:36;5.23;;;3.37;;
16965;SDS011;8599;47.852;12.070;2022-11-15T03:45:10;5.33;;;3.63;;
16965;SDS011;8599;47.852;12.070;2022-11-15T03:47:43;4.90;;;3.67;;
16965;SDS011;8599;47.852;12.070;2022-11-15T03:50:15;4.23;;;3.43;;
16965;SDS011;8599;47.852;12.070;2022-11-15T03:52:44;8.17;;;3.77;;
16965;SDS011;8599;47.852;12.070;2022-11-15T03:55:13;7.53;;;3.83;;
16965;SDS011;8599;47.852;12.070;2022-11-15T03:57:42;4.87;;;3.57;;
16965;SDS011;8599;47.852;12.070;2022-11-15T04:00:09;6.73;;;3.57;;
16965;SDS011;8599;47.852;12.070;2022-11-15T04:02:37;4.63;;;3.17;;
16965;SDS011;8599;47.852;12.070;2022-11-15T04:05:05;3.67;;;3.27;;
16965;SDS011;8599;47.852;12.070;2022-11-15T04:07:32;5.10;;;3.50;;
16965;SDS011;8599;47.852;12.070;2022-11-15T04:09:59;9.63;;;3.73;;
16965;SDS011;8599;47.852;12.070;2022-11-15T04:12:30;5.87;;;3.67;;
16965;SDS011;8599;47.852;12.070;2022-11-15T04:14:58;6.37;;;4.20;;
16965;SDS011;8599;47.852;12.070;2022-11-15T04:17:39;8.57;;;3.67;;
16965;SDS011;8599;47.852;12.070;2022-11-15T04:20:10;6.57;;;4.10;;
16965;SDS011;8599;47.852;12.070;2022-11-15T04:23:00;5.90;;;3.53;;
16965;SDS011;8599;47.852;12.070;2022-11-15T04:25:46;5.30;;;3.23;;
16965;SDS011;8599;47.852;12.070;2022-11-15T04:28:16;8.57;;;4.67;;
16965;SDS011;8599;47.852;12.070;2022-11-15T04:30:43;5.50;;;4.20;;
16965;SDS011;8599;47.852;12.070;2022-11-15T04:33:10;6.03;;;4.30;;
16965;SDS011;8599;47.852;12.070;2022-11-15T04:35:38;7.43;;;5.23;;
16965;SDS011;8599;47.852;12.070;2022-11-15T04:38:06;15.10;;;7.07;;
16965;SDS011;8599;47.852;12.070;2022-11-15T04:40:33;16.40;;;6.90;;
16965;SDS011;8599;47.852;12.070;2022-11-15T04:43:00;12.33;;;5.23;;
16965;SDS011;8599;47.852;12.070;2022-11-15T04:45:27;12.30;;;5.57;;
16965;SDS011;8599;47.852;12.070;2022-11-15T04:47:54;16.40;;;5.67;;
16965;SDS011;8599;47.852;12.070;2022-11-15T04:50:21;11.30;;;4.80;;
16965;SDS011;8599;47.852;12.070;2022-11-15T04:52:51;8.77;;;4.67;;
16965;SDS011;8599;47.852;12.070;2022-11-15T04:55:20;6.70;;;4.00;;
16965;SDS011;8599;47.852;12.070;2022-11-15T04:57:46;4.97;;;4.30;;
16965;SDS011;8599;47.852;12.070;2022-11-15T05:00:14;4.87;;;3.73;;
16965;SDS011;8599;47.852;12.070;2022-11-15T05:02:42;4.57;;;3.63;;
16965;SDS011;8599;47.852;12.070;2022-11-15T05:05:26;6.87;;;4.47;;
16965;SDS011;8599;47.852;12.070;2022-11-15T05:07:54;12.00;;;4.93;;
16965;SDS011;8599;47.852;12.070;2022-11-15T05:10:21;12.97;;;4.93;;
16965;SDS011;8599;47.852;12.070;2022-11-15T05:12:48;7.37;;;4.40;;
16965;SDS011;8599;47.852;12.070;2022-11-15T05:15:15;11.47;;;5.27;;
16965;SDS011;8599;47.852;12.070;2022-11-15T05:17:42;25.83;;;9.50;;
16965;SDS011;8599;47.852;12.070;2022-11-15T05:20:09;23.27;;;10.17;;
16965;SDS011;8599;47.852;12.070;2022-11-15T05:22:37;11.33;;;5.77;;
16965;SDS011;8599;47.852;12.070;2022-11-15T05:25:06;15.63;;;7.27;;
16965;SDS011;8599;47.852;12.070;2022-11-15T05:27:33;10.93;;;4.57;;
16965;SDS011;8599;47.852;12.070;2022-11-15T05:30:00;6.83;;;4.27;;
16965;SDS011;8599;47.852;12.070;2022-11-15T05:32:27;6.33;;;3.97;;
16965;SDS011;8599;47.852;12.070;2022-11-15T05:34:54;6.03;;;4.10;;
16965;SDS011;8599;47.852;12.070;2022-11-15T05:37:21;15.53;;;5.13;;
16965;SDS011;8599;47.852;12.070;2022-11-15T05:39:49;9.60;;;4.47;;
16965;SDS011;8599;47.852;12.070;2022-11-15T05:42:17;10.80;;;5.00;;
16965;SDS011;8599;47.852;12.070;2022-11-15T05:44:46;10.20;;;4.60;;
16965;SDS011;8599;47.852;12.070;2022-11-15T05:47:15;6.33;;;3.80;;
16965;SDS011;8599;47.852;12.070;2022-11-15T05:49:45;6.37;;;3.83;;
16965;SDS011;8599;47.852;12.070;2022-11-15T05:52:14;13.43;;;6.00;;
16965;SDS011;8599;47.852;12.070;2022-11-15T05:54:44;21.80;;;7.17;;
16965;SDS011;8599;47.852;12.070;2022-11-15T05:57:11;13.90;;;5.57;;
16965;SDS011;8599;47.852;12.070;2022-11-15T05:59:40;10.57;;;4.13;;
16965;SDS011;8599;47.852;12.070;2022-11-15T06:02:08;13.23;;;5.57;;
16965;SDS011;8599;47.852;12.070;2022-11-15T06:04:35;11.43;;;5.60;;
16965;SDS011;8599;47.852;12.070;2022-11-15T06:07:02;9.53;;;4.77;;
16965;SDS011;8599;47.852;12.070;2022-11-15T06:09:28;7.03;;;4.77;;
16965;SDS011;8599;47.852;12.070;2022-11-15T06:11:55;11.67;;;5.73;;
16965;SDS011;8599;47.852;12.070;2022-11-15T06:14:22;8.13;;;5.10;;
16965;SDS011;8599;47.852;12.070;2022-11-15T06:16:50;18.70;;;9.03;;
16965;SDS011;8599;47.852;12.070;2022-11-15T06:19:17;8.23;;;4.63;;
16965;SDS011;8599;47.852;12.070;2022-11-15T06:21:44;6.07;;;3.60;;
16965;SDS011;8599;47.852;12.070;2022-11-15T06:24:10;12.07;;;7.00;;
16965;SDS011;8599;47.852;12.070;2022-11-15T06:26:37;6.93;;;4.73;;
16965;SDS011;8599;47.852;12.070;2022-11-15T06:29:04;9.53;;;4.67;;
16965;SDS011;8599;47.852;12.070;2022-11-15T06:31:31;6.77;;;4.40;;
16965;SDS011;8599;47.852;12.070;2022-11-15T06:34:01;6.80;;;5.03;;
16965;SDS011;8599;47.852;12.070;2022-11-15T06:36:28;10.13;;;4.50;;
16965;SDS011;8599;47.852;12.070;2022-11-15T06:38:56;6.47;;;4.10;;
16965;SDS011;8599;47.852;12.070;2022-11-15T06:41:22;6.70;;;3.93;;
16965;SDS011;8599;47.852;12.070;2022-11-15T06:43:49;5.97;;;4.23;;
16965;SDS011;8599;47.852;12.070;2022-11-15T06:46:16;5.40;;;3.47;;
16965;SDS011;8599;47.852;12.070;2022-11-15T06:48:43;11.97;;;5.10;;
16965;SDS011;8599;47.852;12.070;2022-11-15T06:51:11;10.53;;;5.10;;
16965;SDS011;8599;47.852;12.070;2022-11-15T06:53:38;7.20;;;3.83;;
16965;SDS011;8599;47.852;12.070;2022-11-15T06:56:05;17.13;;;5.77;;
16965;SDS011;8599;47.852;12.070;2022-11-15T06:58:34;9.83;;;5.30;;
16965;SDS011;8599;47.852;12.070;2022-11-15T07:01:02;8.33;;;4.67;;
16965;SDS011;8599;47.852;12.070;2022-11-15T07:03:30;10.80;;;4.20;;
16965;SDS011;8599;47.852;12.070;2022-11-15T07:05:57;6.97;;;4.03;;
16965;SDS011;8599;47.852;12.070;2022-11-15T07:08:27;10.73;;;5.33;;
16965;SDS011;8599;47.852;12.070;2022-11-15T07:10:55;9.97;;;5.20;;
16965;SDS011;8599;47.852;12.070;2022-11-15T07:13:24;8.70;;;4.57;;
16965;SDS011;8599;47.852;12.070;2022-11-15T07:15:51;9.90;;;4.93;;
16965;SDS011;8599;47.852;12.070;2022-11-15T07:18:18;12.87;;;6.27;;
16965;SDS011;8599;47.852;12.070;2022-11-15T07:20:46;7.57;;;4.87;;
16965;SDS011;8599;47.852;12.070;2022-11-15T07:23:13;12.37;;;5.07;;
16965;SDS011;8599;47.852;12.070;2022-11-15T07:25:42;13.50;;;4.97;;
16965;SDS011;8599;47.852;12.070;2022-11-15T07:28:09;12.47;;;7.20;;
16965;SDS011;8599;47.852;12.070;2022-11-15T07:30:36;22.13;;;5.13;;
16965;SDS011;8599;47.852;12.070;2022-11-15T07:33:03;9.53;;;5.03;;
16965;SDS011;8599;47.852;12.070;2022-11-15T07:35:29;17.93;;;7.67;;
16965;SDS011;8599;47.852;12.070;2022-11-15T07:37:57;13.30;;;7.30;;
16965;SDS011;8599;47.852;12.070;2022-11-15T07:40:25;20.87;;;8.43;;
16965;SDS011;8599;47.852;12.070;2022-11-15T07:42:53;14.83;;;8.50;;
16965;SDS011;8599;47.852;12.070;2022-11-15T07:45:25;15.70;;;6.57;;
16965;SDS011;8599;47.852;12.070;2022-11-15T07:47:52;23.60;;;7.07;;
16965;SDS011;8599;47.852;12.070;2022-11-15T07:50:21;15.97;;;6.23;;
16965;SDS011;8599;47.852;12.070;2022-11-15T07:52:52;8.60;;;5.40;;
16965;SDS011;8599;47.852;12.070;2022-11-15T07:55:21;11.27;;;4.50;;
16965;SDS011;8599;47.852;12.070;2022-11-15T07:57:48;7.73;;;3.80;;
16965;SDS011;8599;47.852;12.070;2022-11-15T08:00:17;10.13;;;4.27;;
16965;SDS011;8599;47.852;12.070;2022-11-15T08:02:44;7.27;;;4.60;;
16965;SDS011;8599;47.852;12.070;2022-11-15T08:05:11;7.40;;;4.60;;
16965;SDS011;8599;47.852;12.070;2022-11-15T08:07:38;11.37;;;4.10;;
16965;SDS011;8599;47.852;12.070;2022-11-15T08:10:06;5.70;;;3.87;;
16965;SDS011;8599;47.852;12.070;2022-11-15T08:12:34;4.63;;;3.60;;
16965;SDS011;8599;47.852;12.070;2022-11-15T08:15:00;4.00;;;3.00;;
16965;SDS011;8599;47.852;12.070;2022-11-15T08:17:29;4.57;;;2.70;;
16965;SDS011;8599;47.852;12.070;2022-11-15T08:19:57;3.00;;;2.43;;
16965;SDS011;8599;47.852;12.070;2022-11-15T08:22:24;2.67;;;2.00;;
16965;SDS011;8599;47.852;12.070;2022-11-15T08:24:51;6.80;;;3.23;;
16965;SDS011;8599;47.852;12.070;2022-11-15T08:27:18;5.93;;;4.30;;
16965;SDS011;8599;47.852;12.070;2022-11-15T08:29:45;6.20;;;3.57;;
16965;SDS011;8599;47.852;12.070;2022-11-15T08:32:13;6.70;;;3.90;;
16965;SDS011;8599;47.852;12.070;2022-11-15T08:34:41;6.90;;;4.37;;
16965;SDS011;8599;47.852;12.070;2022-11-15T08:37:08;5.87;;;3.93;;
16965;SDS011;8599;47.852;12.070;2022-11-15T08:39:35;5.77;;;3.80;;
16965;SDS011;8599;47.852;12.070;2022-11-15T08:42:03;3.87;;;3.10;;
16965;SDS011;8599;47.852;12.070;2022-11-15T08:44:29;7.63;;;4.63;;
16965;SDS011;8599;47.852;12.070;2022-11-15T08:46:56;8.37;;;4.53;;
16965;SDS011;8599;47.852;12.070;2022-11-15T08:49:23;4.37;;;3.57;;
16965;SDS011;8599;47.852;12.070;2022-11-15T08:51:51;5.93;;;3.90;;
16965;SDS011;8599;47.852;12.070;2022-11-15T08:54:18;7.57;;;4.57;;
16965;SDS011;8599;47.852;12.070;2022-11-15T08:56:45;7.60;;;4.00;;
16965;SDS011;8599;47.852;12.070;2022-11-15T08:59:11;4.50;;;3.23;;
16965;SDS011;8599;47.852;12.070;2022-11-15T09:01:38;4.80;;;4.10;;
16965;SDS011;8599;47.852;12.070;2022-11-15T09:04:05;8.47;;;4.53;;
16965;SDS011;8599;47.852;12.070;2022-11-15T09:06:32;6.70;;;4.50;;
16965;SDS011;8599;47.852;12.070;2022-11-15T09:09:01;5.37;;;3.63;;
16965;SDS011;8599;47.852;12.070;2022-11-15T09:11:28;5.10;;;2.90;;
16965;SDS011;8599;47.852;12.070;2022-11-15T09:13:55;7.10;;;3.67;;
16965;SDS011;8599;47.852;12.070;2022-11-15T09:16:22;5.10;;;3.53;;
16965;SDS011;8599;47.852;12.070;2022-11-15T09:18:49;5.50;;;3.73;;
16965;SDS011;8599;47.852;12.070;2022-11-15T09:21:17;5.47;;;4.03;;
16965;SDS011;8599;47.852;12.070;2022-11-15T09:23:44;4.30;;;3.23;;
16965;SDS011;8599;47.852;12.070;2022-11-15T09:26:12;7.60;;;4.13;;
16965;SDS011;8599;47.852;12.070;2022-11-15T09:28:39;4.23;;;3.20;;
16965;SDS011;8599;47.852;12.070;2022-11-15T09:31:06;5.73;;;3.70;;
16965;SDS011;8599;47.852;12.070;2022-11-15T09:33:34;4.70;;;3.43;;
16965;SDS011;8599;47.852;12.070;2022-11-15T09:36:01;6.93;;;3.80;;
16965;SDS011;8599;47.852;12.070;2022-11-15T09:38:29;5.77;;;3.80;;
16965;SDS011;8599;47.852;12.070;2022-11-15T09:40:58;6.80;;;3.80;;
16965;SDS011;8599;47.852;12.070;2022-11-15T09:43:54;5.23;;;3.87;;
16965;SDS011;8599;47.852;12.070;2022-11-15T09:46:31;3.83;;;2.97;;
16965;SDS011;8599;47.852;12.070;2022-11-15T09:49:04;6.13;;;3.43;;
16965;SDS011;8599;47.852;12.070;2022-11-15T09:51:33;3.63;;;3.07;;
16965;SDS011;8599;47.852;12.070;2022-11-15T09:54:02;6.33;;;3.37;;
16965;SDS011;8599;47.852;12.070;2022-11-15T09:56:37;5.07;;;3.20;;
16965;SDS011;8599;47.852;12.070;2022-11-15T09:59:13;7.00;;;3.60;;
16965;SDS011;8599;47.852;12.070;2022-11-15T10:01:51;2.90;;;2.60;;
16965;SDS011;8599;47.852;12.070;2022-11-15T10:04:22;3.67;;;2.40;;
16965;SDS011;8599;47.852;12.070;2022-11-15T10:06:52;3.77;;;2.97;;
16965;SDS011;8599;47.852;12.070;2022-11-15T10:09:28;4.33;;;3.20;;
16965;SDS011;8599;47.852;12.070;2022-11-15T10:12:01;5.23;;;3.03;;
16965;SDS011;8599;47.852;12.070;2022-11-15T10:14:28;4.60;;;3.07;;
16965;SDS011;8599;47.852;12.070;2022-11-15T10:17:10;3.53;;;2.47;;
16965;SDS011;8599;47.852;12.070;2022-11-15T10:19:56;2.43;;;2.10;;
16965;SDS011;8599;47.852;12.070;2022-11-15T10:22:35;3.70;;;2.03;;
16965;SDS011;8599;47.852;12.070;2022-11-15T10:25:16;4.63;;;2.60;;
16965;SDS011;8599;47.852;12.070;2022-11-15T10:27:47;5.33;;;3.10;;
16965;SDS011;8599;47.852;12.070;2022-11-15T10:30:19;5.87;;;3.67;;
16965;SDS011;8599;47.852;12.070;2022-11-15T10:32:47;4.53;;;3.20;;
16965;SDS011;8599;47.852;12.070;2022-11-15T10:35:22;4.50;;;3.10;;
16965;SDS011;8599;47.852;12.070;2022-11-15T10:37:50;3.67;;;2.70;;
16965;SDS011;8599;47.852;12.070;2022-11-15T10:40:18;3.80;;;3.00;;
16965;SDS011;8599;47.852;12.070;2022-11-15T10:42:48;4.80;;;2.80;;
16965;SDS011;8599;47.852;12.070;2022-11-15T10:45:30;2.57;;;2.37;;
16965;SDS011;8599;47.852;12.070;2022-11-15T10:51:00;2.90;;;2.60;;
16965;SDS011;8599;47.852;12.070;2022-11-15T10:53:28;2.70;;;2.20;;
16965;SDS011;8599;47.852;12.070;2022-11-15T10:56:00;3.53;;;2.10;;
16965;SDS011;8599;47.852;12.070;2022-11-15T10:58:33;4.13;;;2.63;;
16965;SDS011;8599;47.852;12.070;2022-11-15T11:01:13;4.13;;;2.37;;
16965;SDS011;8599;47.852;12.070;2022-11-15T11:03:42;2.43;;;2.23;;
16965;SDS011;8599;47.852;12.070;2022-11-15T11:06:11;3.20;;;2.20;;
16965;SDS011;8599;47.852;12.070;2022-11-15T11:08:40;2.67;;;2.00;;
16965;SDS011;8599;47.852;12.070;2022-11-15T11:11:18;2.80;;;2.53;;
16965;SDS011;8599;47.852;12.070;2022-11-15T11:13:46;2.40;;;2.20;;
16965;SDS011;8599;47.852;12.070;2022-11-15T11:16:17;2.60;;;2.10;;
16965;SDS011;8599;47.852;12.070;2022-11-15T11:18:56;3.67;;;2.33;;
16965;SDS011;8599;47.852;12.070;2022-11-15T11:21:37;4.53;;;2.77;;
16965;SDS011;8599;47.852;12.070;2022-11-15T11:24:12;2.00;;;1.80;;
16965;SDS011;8599;47.852;12.070;2022-11-15T11:26:46;2.27;;;2.00;;
16965;SDS011;8599;47.852;12.070;2022-11-15T11:29:26;2.47;;;1.87;;
16965;SDS011;8599;47.852;12.070;2022-11-15T11:32:08;4.63;;;1.93;;
16965;SDS011;8599;47.852;12.070;2022-11-15T11:34:50;2.70;;;1.90;;
16965;SDS011;8599;47.852;12.070;2022-11-15T11:37:25;2.43;;;1.63;;
16965;SDS011;8599;47.852;12.070;2022-11-15T11:40:01;2.30;;;1.90;;
16965;SDS011;8599;47.852;12.070;2022-11-15T11:42:40;1.80;;;1.60;;
16965;SDS011;8599;47.852;12.070;2022-11-15T11:45:18;1.93;;;1.60;;
16965;SDS011;8599;47.852;12.070;2022-11-15T11:47:51;3.10;;;2.10;;
16965;SDS011;8599;47.852;12.070;2022-11-15T11:50:25;3.83;;;2.33;;
16965;SDS011;8599;47.852;12.070;2022-11-15T11:52:55;4.20;;;2.03;;
16965;SDS011;8599;47.852;12.070;2022-11-15T11:55:25;1.87;;;1.77;;
16965;SDS011;8599;47.852;12.070;2022-11-15T11:57:59;3.43;;;2.33;;
16965;SDS011;8599;47.852;12.070;2022-11-15T12:00:33;5.77;;;2.63;;
16965;SDS011;8599;47.852;12.070;2022-11-15T12:03:05;4.10;;;2.83;;
16965;SDS011;8599;47.852;12.070;2022-11-15T12:05:38;6.00;;;2.60;;
16965;SDS011;8599;47.852;12.070;2022-11-15T12:08:14;3.13;;;2.47;;
16965;SDS011;8599;47.852;12.070;2022-11-15T12:10:59;3.50;;;2.37;;
16965;SDS011;8599;47.852;12.070;2022-11-15T12:13:30;4.37;;;2.60;;
16965;SDS011;8599;47.852;12.070;2022-11-15T12:16:04;2.60;;;2.20;;
16965;SDS011;8599;47.852;12.070;2022-11-15T12:18:38;3.03;;;2.30;;
16965;SDS011;8599;47.852;12.070;2022-11-15T12:21:13;4.10;;;2.40;;
16965;SDS011;8599;47.852;12.070;2022-11-15T12:23:43;2.63;;;2.40;;
16965;SDS011;8599;47.852;12.070;2022-11-15T12:26:15;5.77;;;2.87;;
16965;SDS011;8599;47.852;12.070;2022-11-15T12:28:46;6.93;;;2.57;;
16965;SDS011;8599;47.852;12.070;2022-11-15T12:31:16;4.30;;;2.80;;
16965;SDS011;8599;47.852;12.070;2022-11-15T12:33:47;3.43;;;2.77;;
16965;SDS011;8599;47.852;12.070;2022-11-15T12:36:29;4.03;;;2.23;;
16965;SDS011;8599;47.852;12.070;2022-11-15T12:39:01;5.27;;;2.37;;
16965;SDS011;8599;47.852;12.070;2022-11-15T12:41:29;5.00;;;2.50;;
16965;SDS011;8599;47.852;12.070;2022-11-15T12:43:57;2.57;;;2.33;;
16965;SDS011;8599;47.852;12.070;2022-11-15T12:49:44;3.10;;;2.33;;
16965;SDS011;8599;47.852;12.070;2022-11-15T12:52:12;4.47;;;2.47;;
16965;SDS011;8599;47.852;12.070;2022-11-15T12:54:58;3.33;;;2.53;;
16965;SDS011;8599;47.852;12.070;2022-11-15T12:57:32;3.63;;;2.37;;
16965;SDS011;8599;47.852;12.070;2022-11-15T13:00:35;5.77;;;2.80;;
16965;SDS011;8599;47.852;12.070;2022-11-15T13:05:56;3.67;;;2.30;;
16965;SDS011;8599;47.852;12.070;2022-11-15T13:08:39;4.47;;;2.87;;
16965;SDS011;8599;47.852;12.070;2022-11-15T13:14:49;3.30;;;2.50;;
16965;SDS011;8599;47.852;12.070;2022-11-15T13:20:20;3.10;;;2.37;;
16965;SDS011;8599;47.852;12.070;2022-11-15T13:22:50;3.07;;;2.70;;
16965;SDS011;8599;47.852;12.070;2022-11-15T13:25:28;3.03;;;2.43;;
16965;SDS011;8599;47.852;12.070;2022-11-15T13:28:17;3.10;;;2.80;;
16965;SDS011;8599;47.852;12.070;2022-11-15T13:30:51;3.03;;;2.50;;
16965;SDS011;8599;47.852;12.070;2022-11-15T13:33:20;2.90;;;2.07;;
16965;SDS011;8599;47.852;12.070;2022-11-15T13:35:51;3.60;;;2.13;;
16965;SDS011;8599;47.852;12.070;2022-11-15T13:38:29;4.27;;;2.47;;
16965;SDS011;8599;47.852;12.070;2022-11-15T13:40:58;12.73;;;5.47;;
16965;SDS011;8599;47.852;12.070;2022-11-15T13:43:36;3.03;;;2.50;;
16965;SDS011;8599;47.852;12.070;2022-11-15T13:46:03;3.67;;;3.27;;
16965;SDS011;8599;47.852;12.070;2022-11-15T13:48:36;3.23;;;2.93;;
16965;SDS011;8599;47.852;12.070;2022-11-15T13:51:07;4.57;;;2.67;;
16965;SDS011;8599;47.852;12.070;2022-11-15T13:53:40;2.73;;;2.10;;
16965;SDS011;8599;47.852;12.070;2022-11-15T13:56:11;3.43;;;2.50;;
16965;SDS011;8599;47.852;12.070;2022-11-15T13:58:38;9.57;;;2.80;;
16965;SDS011;8599;47.852;12.070;2022-11-15T14:01:05;3.53;;;2.37;;
16965;SDS011;8599;47.852;12.070;2022-11-15T14:03:35;4.83;;;2.13;;
16965;SDS011;8599;47.852;12.070;2022-11-15T14:06:14;5.10;;;2.67;;
16965;SDS011;8599;47.852;12.070;2022-11-15T14:08:57;3.53;;;2.90;;
16965;SDS011;8599;47.852;12.070;2022-11-15T14:11:26;3.20;;;2.53;;
16965;SDS011;8599;47.852;12.070;2022-11-15T14:14:02;6.30;;;2.67;;
16965;SDS011;8599;47.852;12.070;2022-11-15T14:16:37;3.43;;;2.57;;
16965;SDS011;8599;47.852;12.070;2022-11-15T14:19:06;3.40;;;2.53;;
16965;SDS011;8599;47.852;12.070;2022-11-15T14:21:38;2.20;;;2.00;;
16965;SDS011;8599;47.852;12.070;2022-11-15T14:24:35;4.30;;;2.43;;
16965;SDS011;8599;47.852;12.070;2022-11-15T14:29:47;4.37;;;2.13;;
16965;SDS011;8599;47.852;12.070;2022-11-15T14:32:15;5.43;;;2.87;;
16965;SDS011;8599;47.852;12.070;2022-11-15T14:34:44;2.80;;;2.50;;
16965;SDS011;8599;47.852;12.070;2022-11-15T14:37:23;5.23;;;2.80;;
16965;SDS011;8599;47.852;12.070;2022-11-15T14:39:51;3.40;;;2.33;;
16965;SDS011;8599;47.852;12.070;2022-11-15T14:42:19;3.43;;;2.43;;
16965;SDS011;8599;47.852;12.070;2022-11-15T14:44:47;3.03;;;2.40;;
16965;SDS011;8599;47.852;12.070;2022-11-15T14:47:14;7.40;;;2.27;;
16965;SDS011;8599;47.852;12.070;2022-11-15T14:49:41;4.27;;;2.60;;
16965;SDS011;8599;47.852;12.070;2022-11-15T14:52:16;2.90;;;2.43;;
16965;SDS011;8599;47.852;12.070;2022-11-15T14:54:51;3.90;;;2.70;;
16965;SDS011;8599;47.852;12.070;2022-11-15T14:57:18;3.53;;;2.50;;
16965;SDS011;8599;47.852;12.070;2022-11-15T14:59:44;3.37;;;2.37;;
16965;SDS011;8599;47.852;12.070;2022-11-15T15:02:13;6.63;;;2.87;;
16965;SDS011;8599;47.852;12.070;2022-11-15T15:04:43;3.20;;;2.63;;
16965;SDS011;8599;47.852;12.070;2022-11-15T15:07:10;4.70;;;2.60;;
16965;SDS011;8599;47.852;12.070;2022-11-15T15:09:38;4.17;;;2.73;;
16965;SDS011;8599;47.852;12.070;2022-11-15T15:12:05;4.30;;;3.10;;
16965;SDS011;8599;47.852;12.070;2022-11-15T15:14:38;4.10;;;2.70;;
16965;SDS011;8599;47.852;12.070;2022-11-15T15:17:04;3.97;;;2.83;;
16965;SDS011;8599;47.852;12.070;2022-11-15T15:19:31;6.40;;;3.90;;
16965;SDS011;8599;47.852;12.070;2022-11-15T15:21:58;17.57;;;4.20;;
16965;SDS011;8599;47.852;12.070;2022-11-15T15:24:25;10.00;;;4.53;;
16965;SDS011;8599;47.852;12.070;2022-11-15T15:26:53;10.40;;;4.10;;
16965;SDS011;8599;47.852;12.070;2022-11-15T15:29:20;6.10;;;3.67;;
16965;SDS011;8599;47.852;12.070;2022-11-15T15:31:46;10.60;;;4.33;;